sensor_id;sensor_type;location;lat;lon;timestamp;P1;durP1;ratioP1;P2;durP2;ratioP2
73296;SDS011;61524;50.938;11.396;2023-02-15T00:00:52;16.38;;;7.88;;
73296;SDS011;61524;50.938;11.396;2023-02-15T00:03:20;18.52;;;9.20;;
73296;SDS011;61524;50.938;11.396;2023-02-15T00:05:45;17.10;;;8.52;;
73296;SDS011;61524;50.938;11.396;2023-02-15T00:08:10;20.43;;;8.47;;
73296;SDS011;61524;50.938;11.396;2023-02-15T00:10:36;20.48;;;9.15;;
73296;SDS011;61524;50.938;11.396;2023-02-15T00:13:01;17.77;;;8.10;;
73296;SDS011;61524;50.938;11.396;2023-02-15T00:15:26;22.30;;;8.63;;
73296;SDS011;61524;50.938;11.396;2023-02-15T00:17:51;33.00;;;10.90;;
73296;SDS011;61524;50.938;11.396;2023-02-15T00:20:17;24.13;;;9.60;;
73296;SDS011;61524;50.938;11.396;2023-02-15T00:22:43;17.00;;;8.23;;
73296;SDS011;61524;50.938;11.396;2023-02-15T00:25:08;19.98;;;8.43;;
73296;SDS011;61524;50.938;11.396;2023-02-15T00:27:33;22.57;;;9.17;;
73296;SDS011;61524;50.938;11.396;2023-02-15T00:29:59;17.30;;;8.52;;
73296;SDS011;61524;50.938;11.396;2023-02-15T00:32:24;21.17;;;7.47;;
73296;SDS011;61524;50.938;11.396;2023-02-15T00:34:50;19.13;;;8.32;;
73296;SDS011;61524;50.938;11.396;2023-02-15T00:37:15;18.13;;;7.47;;
73296;SDS011;61524;50.938;11.396;2023-02-15T00:39:40;18.08;;;7.93;;
73296;SDS011;61524;50.938;11.396;2023-02-15T00:42:06;19.07;;;8.37;;
73296;SDS011;61524;50.938;11.396;2023-02-15T00:44:31;21.03;;;8.67;;
73296;SDS011;61524;50.938;11.396;2023-02-15T00:46:56;15.32;;;7.40;;
73296;SDS011;61524;50.938;11.396;2023-02-15T00:49:22;19.30;;;7.73;;
73296;SDS011;61524;50.938;11.396;2023-02-15T00:51:47;17.67;;;8.47;;
73296;SDS011;61524;50.938;11.396;2023-02-15T00:54:12;17.50;;;9.10;;
73296;SDS011;61524;50.938;11.396;2023-02-15T00:56:37;16.77;;;7.90;;
73296;SDS011;61524;50.938;11.396;2023-02-15T00:59:03;17.03;;;8.63;;
73296;SDS011;61524;50.938;11.396;2023-02-15T01:01:28;17.60;;;8.63;;
73296;SDS011;61524;50.938;11.396;2023-02-15T01:03:53;19.83;;;8.93;;
73296;SDS011;61524;50.938;11.396;2023-02-15T01:06:18;20.27;;;9.03;;
73296;SDS011;61524;50.938;11.396;2023-02-15T01:08:44;16.52;;;7.28;;
73296;SDS011;61524;50.938;11.396;2023-02-15T01:11:11;16.85;;;8.13;;
73296;SDS011;61524;50.938;11.396;2023-02-15T01:13:37;20.17;;;8.07;;
73296;SDS011;61524;50.938;11.396;2023-02-15T01:16:03;24.25;;;10.43;;
73296;SDS011;61524;50.938;11.396;2023-02-15T01:18:28;20.63;;;8.75;;
73296;SDS011;61524;50.938;11.396;2023-02-15T01:20:53;18.27;;;8.90;;
73296;SDS011;61524;50.938;11.396;2023-02-15T01:23:19;16.90;;;7.97;;
73296;SDS011;61524;50.938;11.396;2023-02-15T01:25:44;18.67;;;8.77;;
73296;SDS011;61524;50.938;11.396;2023-02-15T01:28:09;21.87;;;8.83;;
73296;SDS011;61524;50.938;11.396;2023-02-15T01:30:35;18.37;;;8.37;;
73296;SDS011;61524;50.938;11.396;2023-02-15T01:33:00;21.87;;;8.30;;
73296;SDS011;61524;50.938;11.396;2023-02-15T01:35:28;25.38;;;9.13;;
73296;SDS011;61524;50.938;11.396;2023-02-15T01:37:54;19.48;;;9.05;;
73296;SDS011;61524;50.938;11.396;2023-02-15T01:40:19;24.98;;;10.25;;
73296;SDS011;61524;50.938;11.396;2023-02-15T01:42:44;24.45;;;11.00;;
73296;SDS011;61524;50.938;11.396;2023-02-15T01:47:43;25.10;;;11.30;;
73296;SDS011;61524;50.938;11.396;2023-02-15T01:52:49;26.88;;;10.20;;
73296;SDS011;61524;50.938;11.396;2023-02-15T01:55:15;31.35;;;11.65;;
73296;SDS011;61524;50.938;11.396;2023-02-15T01:57:40;27.98;;;10.82;;
73296;SDS011;61524;50.938;11.396;2023-02-15T02:00:06;24.08;;;9.95;;
73296;SDS011;61524;50.938;11.396;2023-02-15T02:02:33;27.55;;;10.73;;
73296;SDS011;61524;50.938;11.396;2023-02-15T02:04:59;23.63;;;11.25;;
73296;SDS011;61524;50.938;11.396;2023-02-15T02:07:28;22.88;;;9.73;;
73296;SDS011;61524;50.938;11.396;2023-02-15T02:09:55;22.13;;;8.68;;
73296;SDS011;61524;50.938;11.396;2023-02-15T02:12:20;25.33;;;9.60;;
73296;SDS011;61524;50.938;11.396;2023-02-15T02:14:47;17.00;;;8.32;;
73296;SDS011;61524;50.938;11.396;2023-02-15T02:38:32;20.92;;;8.70;;
73296;SDS011;61524;50.938;11.396;2023-02-15T02:40:59;22.35;;;8.80;;
73296;SDS011;61524;50.938;11.396;2023-02-15T02:46:53;24.63;;;8.95;;
73296;SDS011;61524;50.938;11.396;2023-02-15T02:48:59;27.45;;;8.00;;
73296;SDS011;61524;50.938;11.396;2023-02-15T02:51:25;27.58;;;9.63;;
73296;SDS011;61524;50.938;11.396;2023-02-15T02:53:52;22.13;;;9.20;;
73296;SDS011;61524;50.938;11.396;2023-02-15T02:56:21;25.52;;;8.88;;
73296;SDS011;61524;50.938;11.396;2023-02-15T02:58:48;28.58;;;9.52;;
73296;SDS011;61524;50.938;11.396;2023-02-15T03:01:27;21.58;;;8.40;;
73296;SDS011;61524;50.938;11.396;2023-02-15T03:03:57;27.77;;;9.63;;
73296;SDS011;61524;50.938;11.396;2023-02-15T03:06:36;24.40;;;9.45;;
73296;SDS011;61524;50.938;11.396;2023-02-15T03:09:08;24.98;;;8.77;;
73296;SDS011;61524;50.938;11.396;2023-02-15T03:11:39;23.05;;;8.73;;
73296;SDS011;61524;50.938;11.396;2023-02-15T03:14:04;21.85;;;8.68;;
73296;SDS011;61524;50.938;11.396;2023-02-15T03:16:29;32.78;;;8.57;;
73296;SDS011;61524;50.938;11.396;2023-02-15T03:18:56;29.80;;;9.25;;
73296;SDS011;61524;50.938;11.396;2023-02-15T03:24:30;17.15;;;6.38;;
73296;SDS011;61524;50.938;11.396;2023-02-15T03:26:57;15.43;;;6.53;;
73296;SDS011;61524;50.938;11.396;2023-02-15T03:29:23;14.70;;;6.03;;
73296;SDS011;61524;50.938;11.396;2023-02-15T03:31:50;17.98;;;6.22;;
73296;SDS011;61524;50.938;11.396;2023-02-15T03:34:18;13.93;;;6.25;;
73296;SDS011;61524;50.938;11.396;2023-02-15T03:36:50;17.77;;;5.22;;
73296;SDS011;61524;50.938;11.396;2023-02-15T03:41:46;9.90;;;5.33;;
73296;SDS011;61524;50.938;11.396;2023-02-15T03:44:19;11.50;;;5.38;;
73296;SDS011;61524;50.938;11.396;2023-02-15T03:47:20;11.40;;;5.50;;
73296;SDS011;61524;50.938;11.396;2023-02-15T03:49:55;14.00;;;6.03;;
73296;SDS011;61524;50.938;11.396;2023-02-15T03:52:22;9.80;;;5.53;;
73296;SDS011;61524;50.938;11.396;2023-02-15T03:54:48;11.43;;;6.00;;
73296;SDS011;61524;50.938;11.396;2023-02-15T04:00:03;12.20;;;5.50;;
73296;SDS011;61524;50.938;11.396;2023-02-15T04:05:31;13.68;;;5.30;;
73296;SDS011;61524;50.938;11.396;2023-02-15T04:07:56;11.68;;;5.47;;
73296;SDS011;61524;50.938;11.396;2023-02-15T04:10:22;13.18;;;6.43;;
73296;SDS011;61524;50.938;11.396;2023-02-15T04:13:05;10.60;;;5.05;;
73296;SDS011;61524;50.938;11.396;2023-02-15T04:15:31;12.53;;;6.10;;
73296;SDS011;61524;50.938;11.396;2023-02-15T04:18:14;13.88;;;6.05;;
73296;SDS011;61524;50.938;11.396;2023-02-15T04:20:42;12.17;;;6.57;;
73296;SDS011;61524;50.938;11.396;2023-02-15T04:23:26;15.82;;;6.57;;
73296;SDS011;61524;50.938;11.396;2023-02-15T04:26:10;10.63;;;5.28;;
73296;SDS011;61524;50.938;11.396;2023-02-15T04:28:35;10.67;;;6.43;;
73296;SDS011;61524;50.938;11.396;2023-02-15T04:31:01;13.70;;;6.40;;
73296;SDS011;61524;50.938;11.396;2023-02-15T04:33:26;12.67;;;6.03;;
73296;SDS011;61524;50.938;11.396;2023-02-15T04:35:51;11.17;;;5.53;;
73296;SDS011;61524;50.938;11.396;2023-02-15T04:38:16;12.33;;;6.53;;
73296;SDS011;61524;50.938;11.396;2023-02-15T04:40:42;11.93;;;5.17;;
73296;SDS011;61524;50.938;11.396;2023-02-15T04:43:07;11.63;;;5.47;;
73296;SDS011;61524;50.938;11.396;2023-02-15T04:45:32;9.00;;;4.57;;
73296;SDS011;61524;50.938;11.396;2023-02-15T04:47:58;13.80;;;5.17;;
73296;SDS011;61524;50.938;11.396;2023-02-15T04:50:23;10.20;;;5.20;;
73296;SDS011;61524;50.938;11.396;2023-02-15T04:52:48;13.13;;;5.50;;
73296;SDS011;61524;50.938;11.396;2023-02-15T04:55:14;14.63;;;5.68;;
73296;SDS011;61524;50.938;11.396;2023-02-15T04:57:39;13.80;;;5.75;;
73296;SDS011;61524;50.938;11.396;2023-02-15T05:00:04;11.85;;;4.47;;
73296;SDS011;61524;50.938;11.396;2023-02-15T05:02:30;9.75;;;5.38;;
73296;SDS011;61524;50.938;11.396;2023-02-15T05:04:55;16.87;;;6.20;;
73296;SDS011;61524;50.938;11.396;2023-02-15T05:07:20;14.25;;;6.22;;
73296;SDS011;61524;50.938;11.396;2023-02-15T05:09:46;10.73;;;5.40;;
73296;SDS011;61524;50.938;11.396;2023-02-15T05:12:11;10.00;;;5.50;;
73296;SDS011;61524;50.938;11.396;2023-02-15T05:14:36;12.30;;;5.00;;
73296;SDS011;61524;50.938;11.396;2023-02-15T05:17:02;11.30;;;5.03;;
73296;SDS011;61524;50.938;11.396;2023-02-15T05:19:28;12.40;;;5.72;;
73296;SDS011;61524;50.938;11.396;2023-02-15T05:21:53;10.07;;;4.70;;
73296;SDS011;61524;50.938;11.396;2023-02-15T05:24:19;10.70;;;4.63;;
73296;SDS011;61524;50.938;11.396;2023-02-15T05:27:02;10.75;;;5.15;;
73296;SDS011;61524;50.938;11.396;2023-02-15T05:29:46;8.68;;;4.63;;
73296;SDS011;61524;50.938;11.396;2023-02-15T05:32:12;10.97;;;5.27;;
73296;SDS011;61524;50.938;11.396;2023-02-15T05:34:38;11.98;;;5.63;;
73296;SDS011;61524;50.938;11.396;2023-02-15T05:37:03;11.17;;;6.07;;
73296;SDS011;61524;50.938;11.396;2023-02-15T05:39:28;13.02;;;6.03;;
73296;SDS011;61524;50.938;11.396;2023-02-15T05:41:53;13.53;;;6.03;;
73296;SDS011;61524;50.938;11.396;2023-02-15T05:44:19;10.70;;;5.40;;
73296;SDS011;61524;50.938;11.396;2023-02-15T05:46:44;10.27;;;5.28;;
73296;SDS011;61524;50.938;11.396;2023-02-15T05:49:09;12.20;;;6.03;;
73296;SDS011;61524;50.938;11.396;2023-02-15T05:51:35;11.33;;;5.17;;
73296;SDS011;61524;50.938;11.396;2023-02-15T05:54:00;11.20;;;5.83;;
73296;SDS011;61524;50.938;11.396;2023-02-15T05:56:25;10.70;;;5.80;;
73296;SDS011;61524;50.938;11.396;2023-02-15T05:58:52;11.80;;;5.70;;
73296;SDS011;61524;50.938;11.396;2023-02-15T06:01:18;11.35;;;5.38;;
73296;SDS011;61524;50.938;11.396;2023-02-15T06:03:44;12.80;;;6.03;;
73296;SDS011;61524;50.938;11.396;2023-02-15T06:06:09;10.57;;;5.95;;
73296;SDS011;61524;50.938;11.396;2023-02-15T06:08:35;13.13;;;6.60;;
73296;SDS011;61524;50.938;11.396;2023-02-15T06:11:01;15.15;;;6.07;;
73296;SDS011;61524;50.938;11.396;2023-02-15T06:13:26;13.90;;;6.55;;
73296;SDS011;61524;50.938;11.396;2023-02-15T06:15:52;13.93;;;6.57;;
73296;SDS011;61524;50.938;11.396;2023-02-15T06:18:17;15.50;;;6.07;;
73296;SDS011;61524;50.938;11.396;2023-02-15T06:20:45;10.37;;;5.07;;
73296;SDS011;61524;50.938;11.396;2023-02-15T06:23:10;11.25;;;4.75;;
73296;SDS011;61524;50.938;11.396;2023-02-15T06:25:35;13.17;;;5.87;;
73296;SDS011;61524;50.938;11.396;2023-02-15T06:28:01;11.17;;;5.40;;
73296;SDS011;61524;50.938;11.396;2023-02-15T06:30:26;7.97;;;3.83;;
73296;SDS011;61524;50.938;11.396;2023-02-15T06:32:51;11.40;;;4.90;;
73296;SDS011;61524;50.938;11.396;2023-02-15T06:35:16;7.13;;;3.97;;
73296;SDS011;61524;50.938;11.396;2023-02-15T06:37:42;8.00;;;4.10;;
73296;SDS011;61524;50.938;11.396;2023-02-15T06:40:07;12.67;;;4.47;;
73296;SDS011;61524;50.938;11.396;2023-02-15T06:42:33;9.40;;;4.88;;
73296;SDS011;61524;50.938;11.396;2023-02-15T06:44:58;7.50;;;3.47;;
73296;SDS011;61524;50.938;11.396;2023-02-15T06:47:25;10.23;;;4.00;;
73296;SDS011;61524;50.938;11.396;2023-02-15T06:49:50;7.73;;;3.93;;
73296;SDS011;61524;50.938;11.396;2023-02-15T06:52:15;6.80;;;3.93;;
73296;SDS011;61524;50.938;11.396;2023-02-15T06:54:40;7.40;;;4.10;;
73296;SDS011;61524;50.938;11.396;2023-02-15T06:57:06;8.70;;;3.67;;
73296;SDS011;61524;50.938;11.396;2023-02-15T06:59:31;11.45;;;4.93;;
73296;SDS011;61524;50.938;11.396;2023-02-15T07:01:56;7.87;;;4.10;;
73296;SDS011;61524;50.938;11.396;2023-02-15T07:04:22;8.38;;;3.63;;
73296;SDS011;61524;50.938;11.396;2023-02-15T07:06:47;8.03;;;3.80;;
73296;SDS011;61524;50.938;11.396;2023-02-15T07:09:12;8.93;;;4.15;;
73296;SDS011;61524;50.938;11.396;2023-02-15T07:11:38;9.07;;;4.27;;
73296;SDS011;61524;50.938;11.396;2023-02-15T07:14:21;7.28;;;3.38;;
73296;SDS011;61524;50.938;11.396;2023-02-15T07:16:47;10.60;;;3.70;;
73296;SDS011;61524;50.938;11.396;2023-02-15T07:19:12;8.70;;;4.10;;
73296;SDS011;61524;50.938;11.396;2023-02-15T07:21:37;9.13;;;4.00;;
73296;SDS011;61524;50.938;11.396;2023-02-15T07:24:03;10.33;;;4.03;;
73296;SDS011;61524;50.938;11.396;2023-02-15T07:26:28;6.65;;;3.67;;
73296;SDS011;61524;50.938;11.396;2023-02-15T07:28:53;8.25;;;4.68;;
73296;SDS011;61524;50.938;11.396;2023-02-15T07:31:19;9.13;;;4.40;;
73296;SDS011;61524;50.938;11.396;2023-02-15T07:33:44;9.17;;;4.20;;
73296;SDS011;61524;50.938;11.396;2023-02-15T07:36:10;8.73;;;4.20;;
73296;SDS011;61524;50.938;11.396;2023-02-15T07:38:37;8.40;;;4.28;;
73296;SDS011;61524;50.938;11.396;2023-02-15T07:41:04;9.52;;;4.82;;
73296;SDS011;61524;50.938;11.396;2023-02-15T07:43:29;9.23;;;4.57;;
73296;SDS011;61524;50.938;11.396;2023-02-15T07:46:05;8.20;;;4.05;;
73296;SDS011;61524;50.938;11.396;2023-02-15T07:48:30;10.02;;;5.22;;
73296;SDS011;61524;50.938;11.396;2023-02-15T07:50:59;8.88;;;5.25;;
73296;SDS011;61524;50.938;11.396;2023-02-15T07:53:25;12.13;;;5.25;;
73296;SDS011;61524;50.938;11.396;2023-02-15T07:55:50;9.97;;;5.10;;
73296;SDS011;61524;50.938;11.396;2023-02-15T07:58:17;10.20;;;5.22;;
73296;SDS011;61524;50.938;11.396;2023-02-15T08:00:42;9.35;;;5.28;;
73296;SDS011;61524;50.938;11.396;2023-02-15T08:03:23;15.70;;;5.78;;
73296;SDS011;61524;50.938;11.396;2023-02-15T08:05:51;8.73;;;4.57;;
73296;SDS011;61524;50.938;11.396;2023-02-15T08:08:16;11.45;;;5.82;;
73296;SDS011;61524;50.938;11.396;2023-02-15T08:13:48;12.45;;;5.05;;
73296;SDS011;61524;50.938;11.396;2023-02-15T08:16:53;14.30;;;5.80;;
73296;SDS011;61524;50.938;11.396;2023-02-15T08:21:37;11.57;;;6.43;;
73296;SDS011;61524;50.938;11.396;2023-02-15T08:24:03;17.15;;;6.75;;
73296;SDS011;61524;50.938;11.396;2023-02-15T08:26:29;11.95;;;5.55;;
73296;SDS011;61524;50.938;11.396;2023-02-15T08:28:55;12.82;;;6.53;;
73296;SDS011;61524;50.938;11.396;2023-02-15T08:31:20;13.80;;;7.60;;
73296;SDS011;61524;50.938;11.396;2023-02-15T08:33:46;16.83;;;8.23;;
73296;SDS011;61524;50.938;11.396;2023-02-15T08:36:13;14.55;;;7.22;;
73296;SDS011;61524;50.938;11.396;2023-02-15T08:38:39;14.90;;;6.90;;
73296;SDS011;61524;50.938;11.396;2023-02-15T08:41:15;12.47;;;6.37;;
73296;SDS011;61524;50.938;11.396;2023-02-15T08:43:40;12.52;;;6.25;;
73296;SDS011;61524;50.938;11.396;2023-02-15T08:46:06;15.80;;;7.50;;
73296;SDS011;61524;50.938;11.396;2023-02-15T08:48:32;10.50;;;5.78;;
73296;SDS011;61524;50.938;11.396;2023-02-15T08:50:57;12.38;;;5.88;;
73296;SDS011;61524;50.938;11.396;2023-02-15T08:53:22;11.02;;;5.70;;
73296;SDS011;61524;50.938;11.396;2023-02-15T08:55:55;14.00;;;5.90;;
73296;SDS011;61524;50.938;11.396;2023-02-15T08:58:21;10.13;;;6.07;;
73296;SDS011;61524;50.938;11.396;2023-02-15T09:00:46;10.20;;;5.30;;
73296;SDS011;61524;50.938;11.396;2023-02-15T09:03:11;16.67;;;6.03;;
73296;SDS011;61524;50.938;11.396;2023-02-15T09:05:36;13.90;;;7.00;;
73296;SDS011;61524;50.938;11.396;2023-02-15T09:08:01;13.13;;;7.00;;
73296;SDS011;61524;50.938;11.396;2023-02-15T09:10:27;11.00;;;5.77;;
73296;SDS011;61524;50.938;11.396;2023-02-15T09:12:52;11.57;;;5.93;;
73296;SDS011;61524;50.938;11.396;2023-02-15T09:15:17;11.65;;;6.55;;
73296;SDS011;61524;50.938;11.396;2023-02-15T09:17:43;13.07;;;6.85;;
73296;SDS011;61524;50.938;11.396;2023-02-15T09:20:08;11.77;;;6.33;;
73296;SDS011;61524;50.938;11.396;2023-02-15T09:22:33;11.30;;;6.38;;
73296;SDS011;61524;50.938;11.396;2023-02-15T09:24:59;10.03;;;6.40;;
73296;SDS011;61524;50.938;11.396;2023-02-15T09:27:24;12.03;;;6.27;;
73296;SDS011;61524;50.938;11.396;2023-02-15T09:29:49;11.07;;;6.10;;
73296;SDS011;61524;50.938;11.396;2023-02-15T09:32:14;11.40;;;6.20;;
73296;SDS011;61524;50.938;11.396;2023-02-15T09:34:40;12.35;;;6.72;;
73296;SDS011;61524;50.938;11.396;2023-02-15T09:37:05;13.33;;;6.97;;
73296;SDS011;61524;50.938;11.396;2023-02-15T09:39:31;11.20;;;6.05;;
73296;SDS011;61524;50.938;11.396;2023-02-15T09:42:11;12.60;;;5.90;;
73296;SDS011;61524;50.938;11.396;2023-02-15T09:50:15;13.57;;;6.40;;
73296;SDS011;61524;50.938;11.396;2023-02-15T10:03:15;19.42;;;10.10;;
73296;SDS011;61524;50.938;11.396;2023-02-15T10:11:08;15.85;;;8.90;;
73296;SDS011;61524;50.938;11.396;2023-02-15T10:16:45;16.42;;;7.85;;
73296;SDS011;61524;50.938;11.396;2023-02-15T10:27:20;16.58;;;10.07;;
73296;SDS011;61524;50.938;11.396;2023-02-15T10:37:33;13.73;;;7.70;;
73296;SDS011;61524;50.938;11.396;2023-02-15T10:53:20;15.48;;;8.27;;
73296;SDS011;61524;50.938;11.396;2023-02-15T11:06:00;13.95;;;7.18;;
73296;SDS011;61524;50.938;11.396;2023-02-15T11:08:29;13.93;;;7.53;;
73296;SDS011;61524;50.938;11.396;2023-02-15T11:10:57;15.35;;;7.45;;
73296;SDS011;61524;50.938;11.396;2023-02-15T11:13:24;13.13;;;7.00;;
73296;SDS011;61524;50.938;11.396;2023-02-15T11:23:13;12.57;;;6.50;;
73296;SDS011;61524;50.938;11.396;2023-02-15T11:25:41;14.00;;;7.28;;
73296;SDS011;61524;50.938;11.396;2023-02-15T11:28:09;12.80;;;6.82;;
73296;SDS011;61524;50.938;11.396;2023-02-15T11:31:37;10.45;;;6.38;;
73296;SDS011;61524;50.938;11.396;2023-02-15T11:33:31;12.43;;;6.13;;
73296;SDS011;61524;50.938;11.396;2023-02-15T11:36:00;11.13;;;6.05;;
73296;SDS011;61524;50.938;11.396;2023-02-15T11:38:31;11.82;;;6.50;;
73296;SDS011;61524;50.938;11.396;2023-02-15T11:41:01;9.77;;;5.55;;
73296;SDS011;61524;50.938;11.396;2023-02-15T11:45:54;11.18;;;5.85;;
73296;SDS011;61524;50.938;11.396;2023-02-15T11:48:19;10.05;;;5.70;;
73296;SDS011;61524;50.938;11.396;2023-02-15T11:50:45;11.52;;;5.70;;
73296;SDS011;61524;50.938;11.396;2023-02-15T11:53:12;13.68;;;5.88;;
73296;SDS011;61524;50.938;11.396;2023-02-15T11:55:38;11.68;;;6.45;;
73296;SDS011;61524;50.938;11.396;2023-02-15T12:00:47;13.25;;;7.38;;
73296;SDS011;61524;50.938;11.396;2023-02-15T12:03:26;12.13;;;7.00;;
73296;SDS011;61524;50.938;11.396;2023-02-15T12:05:54;11.55;;;7.05;;
73296;SDS011;61524;50.938;11.396;2023-02-15T12:08:21;11.60;;;5.78;;
73296;SDS011;61524;50.938;11.396;2023-02-15T12:13:24;13.48;;;6.38;;
73296;SDS011;61524;50.938;11.396;2023-02-15T12:15:51;10.77;;;6.27;;
73296;SDS011;61524;50.938;11.396;2023-02-15T12:20:42;13.80;;;7.25;;
73296;SDS011;61524;50.938;11.396;2023-02-15T12:23:14;14.15;;;6.65;;
73296;SDS011;61524;50.938;11.396;2023-02-15T12:25:48;10.73;;;6.43;;
73296;SDS011;61524;50.938;11.396;2023-02-15T12:30:50;11.27;;;7.65;;
73296;SDS011;61524;50.938;11.396;2023-02-15T12:33:18;11.13;;;7.05;;
73296;SDS011;61524;50.938;11.396;2023-02-15T12:35:46;12.45;;;7.10;;
73296;SDS011;61524;50.938;11.396;2023-02-15T12:40:40;11.63;;;7.30;;
73296;SDS011;61524;50.938;11.396;2023-02-15T12:43:08;14.02;;;7.10;;
73296;SDS011;61524;50.938;11.396;2023-02-15T12:45:49;11.20;;;6.70;;
73296;SDS011;61524;50.938;11.396;2023-02-15T12:48:16;12.10;;;7.00;;
73296;SDS011;61524;50.938;11.396;2023-02-15T12:53:12;11.18;;;6.65;;
73296;SDS011;61524;50.938;11.396;2023-02-15T12:55:38;10.82;;;6.50;;
73296;SDS011;61524;50.938;11.396;2023-02-15T13:00:32;13.18;;;6.50;;
73296;SDS011;61524;50.938;11.396;2023-02-15T13:02:58;12.95;;;6.30;;
73296;SDS011;61524;50.938;11.396;2023-02-15T13:05:26;10.88;;;6.60;;
73296;SDS011;61524;50.938;11.396;2023-02-15T13:08:00;11.18;;;6.65;;
73296;SDS011;61524;50.938;11.396;2023-02-15T13:10:30;10.32;;;6.05;;
73296;SDS011;61524;50.938;11.396;2023-02-15T13:12:57;9.63;;;5.50;;
73296;SDS011;61524;50.938;11.396;2023-02-15T13:15:24;9.52;;;5.30;;
73296;SDS011;61524;50.938;11.396;2023-02-15T13:17:51;10.45;;;5.63;;
73296;SDS011;61524;50.938;11.396;2023-02-15T13:20:17;8.88;;;4.72;;
73296;SDS011;61524;50.938;11.396;2023-02-15T13:22:44;8.88;;;4.22;;
73296;SDS011;61524;50.938;11.396;2023-02-15T13:25:17;10.38;;;5.63;;
73296;SDS011;61524;50.938;11.396;2023-02-15T13:27:44;10.20;;;6.20;;
73296;SDS011;61524;50.938;11.396;2023-02-15T13:33:01;10.48;;;5.70;;
73296;SDS011;61524;50.938;11.396;2023-02-15T13:35:28;11.80;;;5.72;;
73296;SDS011;61524;50.938;11.396;2023-02-15T13:40:25;9.32;;;6.03;;
73296;SDS011;61524;50.938;11.396;2023-02-15T13:42:56;13.70;;;6.22;;
73296;SDS011;61524;50.938;11.396;2023-02-15T13:53:17;6.68;;;4.07;;
73296;SDS011;61524;50.938;11.396;2023-02-15T14:01:16;8.70;;;4.22;;
73296;SDS011;61524;50.938;11.396;2023-02-15T14:06:34;8.35;;;4.25;;
73296;SDS011;61524;50.938;11.396;2023-02-15T14:11:35;7.20;;;4.50;;
73296;SDS011;61524;50.938;11.396;2023-02-15T14:17:08;7.78;;;4.13;;
73296;SDS011;61524;50.938;11.396;2023-02-15T14:22:31;6.20;;;3.47;;
73296;SDS011;61524;50.938;11.396;2023-02-15T14:27:26;8.10;;;4.13;;
73296;SDS011;61524;50.938;11.396;2023-02-15T14:29:54;8.13;;;4.15;;
73296;SDS011;61524;50.938;11.396;2023-02-15T14:32:26;9.90;;;4.72;;
73296;SDS011;61524;50.938;11.396;2023-02-15T14:34:54;8.18;;;4.50;;
73296;SDS011;61524;50.938;11.396;2023-02-15T14:42:53;9.82;;;5.28;;
73296;SDS011;61524;50.938;11.396;2023-02-15T14:45:34;10.20;;;5.07;;
73296;SDS011;61524;50.938;11.396;2023-02-15T14:48:21;10.85;;;5.95;;
73296;SDS011;61524;50.938;11.396;2023-02-15T14:50:49;8.75;;;4.75;;
73296;SDS011;61524;50.938;11.396;2023-02-15T14:58:35;11.38;;;5.13;;
73296;SDS011;61524;50.938;11.396;2023-02-15T15:01:07;10.43;;;5.50;;
73296;SDS011;61524;50.938;11.396;2023-02-15T15:03:33;10.23;;;4.97;;
73296;SDS011;61524;50.938;11.396;2023-02-15T15:06:00;7.57;;;4.20;;
73296;SDS011;61524;50.938;11.396;2023-02-15T15:08:38;12.05;;;4.82;;
73296;SDS011;61524;50.938;11.396;2023-02-15T15:13:53;13.45;;;6.18;;
73296;SDS011;61524;50.938;11.396;2023-02-15T15:16:45;11.85;;;5.80;;
73296;SDS011;61524;50.938;11.396;2023-02-15T15:19:12;11.48;;;5.85;;
73296;SDS011;61524;50.938;11.396;2023-02-15T15:29:42;9.88;;;5.75;;
73296;SDS011;61524;50.938;11.396;2023-02-15T15:32:08;9.48;;;4.70;;
73296;SDS011;61524;50.938;11.396;2023-02-15T15:37:09;9.27;;;5.57;;
73296;SDS011;61524;50.938;11.396;2023-02-15T15:42:12;10.27;;;6.20;;
73296;SDS011;61524;50.938;11.396;2023-02-15T15:44:55;11.45;;;6.45;;
73296;SDS011;61524;50.938;11.396;2023-02-15T15:47:28;11.38;;;6.15;;
73296;SDS011;61524;50.938;11.396;2023-02-15T15:49:58;11.25;;;5.82;;
73296;SDS011;61524;50.938;11.396;2023-02-15T15:52:23;10.45;;;4.70;;
73296;SDS011;61524;50.938;11.396;2023-02-15T15:54:52;10.55;;;5.53;;
73296;SDS011;61524;50.938;11.396;2023-02-15T15:59:51;11.18;;;5.60;;
73296;SDS011;61524;50.938;11.396;2023-02-15T16:02:16;9.13;;;4.97;;
73296;SDS011;61524;50.938;11.396;2023-02-15T16:04:42;8.77;;;5.00;;
73296;SDS011;61524;50.938;11.396;2023-02-15T16:09:39;14.07;;;5.32;;
73296;SDS011;61524;50.938;11.396;2023-02-15T16:12:04;7.57;;;4.23;;
73296;SDS011;61524;50.938;11.396;2023-02-15T16:14:37;11.43;;;5.18;;
73296;SDS011;61524;50.938;11.396;2023-02-15T16:17:04;8.60;;;4.47;;
73296;SDS011;61524;50.938;11.396;2023-02-15T16:21:55;8.00;;;4.17;;
73296;SDS011;61524;50.938;11.396;2023-02-15T16:29:32;10.85;;;4.55;;
73296;SDS011;61524;50.938;11.396;2023-02-15T16:32:02;7.40;;;3.80;;
73296;SDS011;61524;50.938;11.396;2023-02-15T16:34:28;10.13;;;4.40;;
73296;SDS011;61524;50.938;11.396;2023-02-15T16:37:15;9.80;;;4.55;;
73296;SDS011;61524;50.938;11.396;2023-02-15T16:39:41;7.28;;;4.55;;
73296;SDS011;61524;50.938;11.396;2023-02-15T16:42:07;8.75;;;4.10;;
73296;SDS011;61524;50.938;11.396;2023-02-15T16:44:33;9.80;;;4.28;;
73296;SDS011;61524;50.938;11.396;2023-02-15T16:46:58;8.13;;;4.55;;
73296;SDS011;61524;50.938;11.396;2023-02-15T16:49:25;7.95;;;4.30;;
73296;SDS011;61524;50.938;11.396;2023-02-15T16:52:01;8.63;;;3.92;;
73296;SDS011;61524;50.938;11.396;2023-02-15T16:54:27;16.13;;;7.68;;
73296;SDS011;61524;50.938;11.396;2023-02-15T16:56:53;12.13;;;6.78;;
73296;SDS011;61524;50.938;11.396;2023-02-15T16:59:35;11.02;;;6.97;;
73296;SDS011;61524;50.938;11.396;2023-02-15T17:02:03;11.80;;;6.55;;
73296;SDS011;61524;50.938;11.396;2023-02-15T17:04:30;13.95;;;7.47;;
73296;SDS011;61524;50.938;11.396;2023-02-15T17:07:00;9.32;;;5.15;;
73296;SDS011;61524;50.938;11.396;2023-02-15T17:09:25;9.23;;;4.10;;
73296;SDS011;61524;50.938;11.396;2023-02-15T17:11:51;7.07;;;3.93;;
73296;SDS011;61524;50.938;11.396;2023-02-15T17:14:50;9.88;;;4.53;;
73296;SDS011;61524;50.938;11.396;2023-02-15T17:17:12;9.45;;;4.25;;
73296;SDS011;61524;50.938;11.396;2023-02-15T17:19:48;7.35;;;4.28;;
73296;SDS011;61524;50.938;11.396;2023-02-15T17:22:21;9.23;;;4.80;;
73296;SDS011;61524;50.938;11.396;2023-02-15T17:24:47;7.78;;;4.47;;
73296;SDS011;61524;50.938;11.396;2023-02-15T17:27:18;14.38;;;4.95;;
73296;SDS011;61524;50.938;11.396;2023-02-15T17:29:44;7.88;;;3.50;;
73296;SDS011;61524;50.938;11.396;2023-02-15T17:32:15;8.05;;;4.45;;
73296;SDS011;61524;50.938;11.396;2023-02-15T17:34:49;9.32;;;4.50;;
73296;SDS011;61524;50.938;11.396;2023-02-15T17:39:40;9.45;;;4.53;;
73296;SDS011;61524;50.938;11.396;2023-02-15T17:42:05;9.93;;;5.15;;
73296;SDS011;61524;50.938;11.396;2023-02-15T17:44:30;9.88;;;4.85;;
73296;SDS011;61524;50.938;11.396;2023-02-15T17:46:56;13.30;;;5.00;;
73296;SDS011;61524;50.938;11.396;2023-02-15T17:49:25;10.93;;;4.70;;
73296;SDS011;61524;50.938;11.396;2023-02-15T17:51:58;11.20;;;5.18;;
73296;SDS011;61524;50.938;11.396;2023-02-15T17:54:23;11.20;;;5.03;;
73296;SDS011;61524;50.938;11.396;2023-02-15T17:57:11;9.90;;;5.13;;
73296;SDS011;61524;50.938;11.396;2023-02-15T17:59:37;11.10;;;5.60;;